Time;durP1;ratioP1;P1;durP2;ratioP2;P2;SDS_P1;SDS_P2;PMS_P1;PMS_P2;Temp;Humidity;BMP_temperature;BMP_pressure;BME280_temperature;BME280_humidity;BME280_pressure;Samples;Min_cycle;Max_cycle;Signal;HPM_P1;HPM_P2
2022/04/19 00:00:18;;;;;;;10.02;1.40;;;;;;;17.88;52.36;101567.97;5031597;28;20025;-52
2022/04/19 00:02:44;;;;;;;6.57;1.63;;;;;;;17.71;55.04;101569.69;5031514;28;20033;-52
2022/04/19 00:05:10;;;;;;;9.63;2.28;;;;;;;17.41;54.46;101566.03;5031751;28;20025;-52
2022/04/19 00:07:37;;;;;;;8.30;2.15;;;;;;;17.33;55.13;101552.88;5031794;28;20384;-49
2022/04/19 00:10:05;;;;;;;12.80;2.10;;;;;;;17.21;54.04;101549.31;5031442;28;20045;-51
2022/04/19 00:12:32;;;;;;;4.85;1.45;;;;;;;17.15;55.48;101548.34;5031808;28;20412;-52
2022/04/19 00:14:58;;;;;;;6.90;1.30;;;;;;;16.94;55.18;101554.31;5031886;28;20179;-50
2022/04/19 00:17:25;;;;;;;5.15;1.80;;;;;;;16.72;54.43;101558.59;5031385;28;20032;-52
2022/04/19 00:19:52;;;;;;;7.07;1.95;;;;;;;16.72;53.84;101561.28;5016803;28;20049;-50
2022/04/19 00:22:19;;;;;;;7.07;2.10;;;;;;;16.78;54.46;101554.97;5035115;28;20104;-52
2022/04/19 00:24:45;;;;;;;6.30;1.98;;;;;;;16.89;54.65;101536.06;5024841;28;20069;-52
2022/04/19 00:27:12;;;;;;;8.52;1.83;;;;;;;16.96;54.29;101540.56;5015603;28;20111;-52
2022/04/19 00:29:41;;;;;;;4.18;1.60;;;;;;;16.77;55.20;101543.34;5014973;28;20033;-52
2022/04/19 00:32:11;;;;;;;4.10;1.58;;;;;;;16.69;55.04;101543.59;5015672;28;20029;-50
2022/04/19 00:34:38;;;;;;;4.85;1.20;;;;;;;16.87;54.62;101538.16;5026471;28;20021;-52
2022/04/19 00:37:06;;;;;;;6.25;1.60;;;;;;;16.78;55.13;101531.47;5034658;28;20403;-52
2022/04/19 00:39:33;;;;;;;8.25;1.77;;;;;;;16.93;55.33;101528.31;5033933;28;20045;-52
2022/04/19 00:41:59;;;;;;;5.85;1.70;;;;;;;17.14;54.74;101526.94;5035172;28;20512;-51
2022/04/19 00:44:26;;;;;;;6.15;1.65;;;;;;;17.25;54.09;101522.63;5035123;28;20377;-52
2022/04/19 00:46:52;;;;;;;11.10;1.90;;;;;;;17.41;53.71;101522.75;5027735;28;20033;-52
2022/04/19 00:49:19;;;;;;;7.15;1.17;;;;;;;17.33;54.13;101515.00;5034532;28;20056;-52
2022/04/19 00:51:45;;;;;;;5.63;1.83;;;;;;;17.36;54.42;101519.91;5029725;28;20087;-51
2022/04/19 00:54:13;;;;;;;3.80;1.30;;;;;;;17.43;54.93;101519.78;5035918;28;20029;-52
2022/04/19 00:56:40;;;;;;;2.78;1.20;;;;;;;17.52;55.00;101520.28;5023421;28;20068;-52
2022/04/19 00:59:10;;;;;;;3.80;1.33;;;;;;;17.73;53.76;101530.56;5016450;28;20469;-49
2022/04/19 01:01:37;;;;;;;8.20;1.50;;;;;;;17.76;54.86;101524.66;5034609;28;20030;-53
2022/04/19 01:04:05;;;;;;;6.25;1.85;;;;;;;17.74;55.29;101521.34;5027847;28;20083;-53
2022/04/19 01:06:31;;;;;;;7.68;1.70;;;;;;;17.68;55.29;101503.31;5015384;28;20121;-53
2022/04/19 01:08:58;;;;;;;6.30;1.80;;;;;;;17.72;54.48;101495.56;5028678;28;20022;-52
2022/04/19 01:14:09;;;;;;;5.53;1.50;;;;;;;17.69;54.80;101489.53;5034737;28;20040;-53
2022/04/19 01:16:36;;;;;;;5.00;1.27;;;;;;;17.64;54.87;101488.59;5034514;28;20017;-52
2022/04/19 01:19:05;;;;;;;3.05;1.45;;;;;;;17.49;55.42;101485.56;5033649;28;20048;-51
2022/04/19 01:21:51;;;;;;;3.20;1.10;;;;;;;17.48;55.78;101475.78;5033868;28;20104;-54
2022/04/19 01:24:19;;;;;;;5.10;1.80;;;;;;;17.28;56.93;101485.09;5026721;28;20092;-54
2022/04/19 01:26:46;;;;;;;3.97;1.55;;;;;;;17.50;56.28;101471.81;5027907;28;20034;-55
2022/04/19 01:29:13;;;;;;;4.05;1.38;;;;;;;17.34;56.87;101467.91;5014105;28;20030;-54
2022/04/19 01:31:41;;;;;;;7.88;2.50;;;;;;;17.45;56.75;101471.69;5026199;28;20465;-53
2022/04/19 01:34:08;;;;;;;5.93;1.70;;;;;;;17.61;55.89;101473.69;5014004;28;20038;-53
2022/04/19 01:36:36;;;;;;;3.33;1.35;;;;;;;17.36;55.57;101467.69;5014090;28;20044;-53
2022/04/19 01:39:08;;;;;;;5.72;1.30;;;;;;;17.32;56.25;101461.09;5013889;28;20424;-54
2022/04/19 01:41:34;;;;;;;9.15;1.50;;;;;;;17.14;57.10;101465.56;5028646;28;20151;-53
2022/04/19 01:44:01;;;;;;;5.05;1.30;;;;;;;17.15;57.36;101463.66;5025402;28;20108;-54
2022/04/19 01:46:27;;;;;;;3.50;1.50;;;;;;;16.97;57.36;101461.06;5013952;28;20040;-53
2022/04/19 01:48:57;;;;;;;3.50;1.00;;;;;;;16.85;57.44;101455.66;5017112;28;20079;-53
2022/04/19 01:51:24;;;;;;;6.20;1.40;;;;;;;16.87;57.58;101458.94;5014322;28;20026;-54
2022/04/19 01:53:51;;;;;;;5.55;1.15;;;;;;;16.88;58.08;101444.38;5014098;28;20065;-53
2022/04/19 01:56:18;;;;;;;4.65;1.63;;;;;;;17.00;58.25;101450.63;5023757;28;20025;-53
2022/04/19 01:58:45;;;;;;;5.10;2.22;;;;;;;16.95;58.54;101445.09;5033153;28;20047;-53
2022/04/19 02:01:12;;;;;;;7.75;1.90;;;;;;;17.04;57.57;101440.97;5032817;28;20021;-54
2022/04/19 02:03:38;;;;;;;7.38;2.08;;;;;;;16.96;58.07;101433.22;5033530;28;20072;-53
2022/04/19 02:06:09;;;;;;;6.95;1.70;;;;;;;16.80;58.57;101433.91;5031886;28;20037;-53
2022/04/19 02:08:35;;;;;;;3.30;1.33;;;;;;;16.83;58.90;101425.34;5033101;28;20484;-54
2022/04/19 02:11:01;;;;;;;4.15;1.33;;;;;;;16.81;58.83;101420.13;5033498;28;20083;-53
2022/04/19 02:13:28;;;;;;;2.50;0.90;;;;;;;16.62;59.71;101427.50;5033719;28;20065;-53
2022/04/19 02:15:54;;;;;;;2.92;1.05;;;;;;;16.80;59.74;101423.91;5033405;28;20377;-54
2022/04/19 02:18:20;;;;;;;2.08;0.93;;;;;;;16.87;59.15;101426.50;5033058;28;20040;-54
2022/04/19 02:20:46;;;;;;;5.57;1.30;;;;;;;16.74;59.92;101421.31;5030857;28;20060;-53
2022/04/19 02:23:13;;;;;;;5.35;1.00;;;;;;;16.71;60.32;101429.88;5033418;28;20489;-54
2022/04/19 02:25:40;;;;;;;2.75;1.02;;;;;;;16.74;61.27;101430.25;5019582;28;20037;-54
2022/04/19 02:28:06;;;;;;;3.05;1.33;;;;;;;16.57;61.69;101431.94;5013055;28;20030;-53
2022/04/19 02:30:33;;;;;;;2.90;0.88;;;;;;;16.64;61.34;101447.00;5012415;28;20018;-53
2022/04/19 02:33:02;;;;;;;4.95;1.20;;;;;;;16.46;62.28;101435.44;5019571;28;20473;-54
2022/04/19 02:35:31;;;;;;;3.17;0.80;;;;;;;16.56;62.00;101433.81;5022302;28;20033;-54
2022/04/19 02:37:59;;;;;;;2.60;0.80;;;;;;;16.39;62.89;101438.25;5013004;28;20092;-52
2022/04/19 02:40:27;;;;;;;2.05;0.73;;;;;;;16.41;62.56;101430.72;5012429;28;20196;-53
2022/04/19 02:42:57;;;;;;;2.85;1.05;;;;;;;16.32;63.10;101432.94;5012695;28;20030;-52
2022/04/19 02:45:25;;;;;;;6.97;0.80;;;;;;;16.27;63.32;101434.69;5012257;28;20112;-52
2022/04/19 02:48:06;;;;;;;2.22;0.80;;;;;;;16.37;62.85;101434.91;5012929;28;20041;-53
2022/04/19 02:50:43;;;;;;;3.88;1.05;;;;;;;16.33;63.34;101434.56;5022732;28;20104;-53
2022/04/19 02:53:09;;;;;;;1.85;0.90;;;;;;;16.12;63.24;101437.78;5032447;28;20033;-52
2022/04/19 02:55:36;;;;;;;4.97;1.00;;;;;;;16.12;63.57;101442.34;5026722;28;20060;-53
2022/04/19 02:58:03;;;;;;;4.35;0.82;;;;;;;16.03;64.21;101434.56;5012889;28;20033;-53
2022/04/19 03:00:29;;;;;;;2.30;0.85;;;;;;;15.98;63.69;101442.50;5012606;28;20121;-54
2022/04/19 03:02:55;;;;;;;4.82;1.17;;;;;;;15.94;64.45;101430.53;5012243;28;20080;-53
2022/04/19 03:05:22;;;;;;;3.03;1.00;;;;;;;15.96;63.60;101433.81;5012738;28;20477;-52
2022/04/19 03:07:48;;;;;;;3.70;0.95;;;;;;;15.79;64.62;101419.28;5025078;28;20033;-53
2022/04/19 03:10:21;;;;;;;4.30;1.15;;;;;;;15.86;65.11;101422.72;5031767;28;20060;-53
2022/04/19 03:12:48;;;;;;;2.53;1.20;;;;;;;15.89;64.47;101433.09;5025616;28;20033;-53
2022/04/19 03:15:15;;;;;;;3.38;1.27;;;;;;;15.85;64.58;101431.88;5012117;28;20070;-53
2022/04/19 03:17:41;;;;;;;4.60;1.30;;;;;;;15.80;65.24;101429.03;5012422;28;20026;-54
2022/04/19 03:20:08;;;;;;;4.93;1.38;;;;;;;15.71;65.42;101431.22;5011913;28;20116;-53
2022/04/19 03:28:09;;;;;;;5.07;1.40;;;;;;;15.58;65.61;101442.94;5031932;28;20040;-53
2022/04/19 03:30:36;;;;;;;6.53;1.42;;;;;;;15.48;65.77;101448.03;5031538;28;20064;-52
2022/04/19 03:33:02;;;;;;;7.75;1.70;;;;;;;15.52;65.27;101446.53;5031901;28;20084;-54
2022/04/19 03:35:28;;;;;;;4.57;1.38;;;;;;;15.41;65.57;101449.97;5031849;28;20432;-53
2022/04/19 03:37:55;;;;;;;6.15;1.90;;;;;;;15.24;66.64;101440.81;5031514;28;20022;-52
2022/04/19 03:40:21;;;;;;;3.83;1.27;;;;;;;15.15;67.20;101434.06;5031099;28;20056;-53
2022/04/19 03:42:47;;;;;;;5.10;1.33;;;;;;;15.13;67.22;101438.84;5011752;28;20034;-53
2022/04/19 03:45:13;;;;;;;6.18;1.30;;;;;;;15.07;67.95;101445.13;5012195;28;20030;-53
2022/04/19 03:47:39;;;;;;;8.13;1.17;;;;;;;15.14;67.28;101462.06;5012051;28;20061;-51
2022/04/19 03:50:07;;;;;;;4.90;1.33;;;;;;;15.12;67.70;101464.16;5011787;28;20037;-54
2022/04/19 03:52:37;;;;;;;6.22;1.75;;;;;;;15.21;68.32;101462.81;5011440;28;20075;-53
2022/04/19 03:55:03;;;;;;;6.45;1.70;;;;;;;15.16;67.81;101465.38;5011692;28;20099;-53
2022/04/19 03:57:29;;;;;;;8.15;1.50;;;;;;;15.11;68.68;101462.53;5013675;28;20026;-52
2022/04/19 03:59:56;;;;;;;5.10;1.52;;;;;;;15.26;68.35;101460.28;5031613;28;20024;-51
2022/04/19 04:02:22;;;;;;;5.25;1.42;;;;;;;15.11;68.48;101465.22;5031085;28;20469;-54
2022/04/19 04:04:48;;;;;;;2.58;1.50;;;;;;;15.14;68.43;101462.88;5011696;28;20505;-51
2022/04/19 04:07:14;;;;;;;5.97;1.45;;;;;;;15.12;68.11;101462.31;5015089;28;20140;-52
2022/04/19 04:09:41;;;;;;;4.82;1.20;;;;;;;14.98;69.18;101466.13;5013001;28;20026;-53
2022/04/19 04:12:09;;;;;;;3.78;1.38;;;;;;;15.15;67.43;101469.09;5023334;28;20083;-52
2022/04/19 04:14:40;;;;;;;4.05;1.23;;;;;;;15.10;67.94;101469.75;5031409;28;20076;-53
2022/04/19 04:17:06;;;;;;;3.50;1.00;;;;;;;15.09;67.51;101459.22;5028330;28;20029;-53
2022/04/19 04:19:33;;;;;;;5.43;1.35;;;;;;;14.98;68.51;101452.66;5010180;28;20073;-52
2022/04/19 04:21:59;;;;;;;4.05;1.20;;;;;;;14.95;68.68;101461.19;5011660;28;20049;-54
2022/04/19 04:24:26;;;;;;;3.92;1.70;;;;;;;14.92;68.97;101461.63;5011177;28;20030;-53
2022/04/19 04:26:52;;;;;;;3.35;1.38;;;;;;;14.89;68.97;101462.09;5009867;28;20033;-51
2022/04/19 04:29:19;;;;;;;2.38;1.10;;;;;;;15.02;68.76;101472.75;5013739;28;20490;-52
2022/04/19 04:31:45;;;;;;;2.15;0.98;;;;;;;15.06;68.06;101465.88;5011786;28;20042;-52
2022/04/19 04:34:11;;;;;;;4.63;1.45;;;;;;;15.01;68.79;101463.84;5011110;28;20025;-53
2022/04/19 04:36:37;;;;;;;1.40;0.82;;;;;;;14.81;69.04;101457.78;5014632;28;20057;-53
2022/04/19 04:39:04;;;;;;;6.03;1.55;;;;;;;14.81;69.01;101447.00;5011048;28;20431;-53
2022/04/19 04:41:30;;;;;;;3.88;0.98;;;;;;;14.98;68.31;101458.06;5014017;28;20421;-53
2022/04/19 04:43:56;;;;;;;5.32;1.38;;;;;;;14.99;68.64;101454.31;5010853;28;20516;-53
2022/04/19 04:51:51;;;;;;;2.70;1.40;;;;;;;14.89;68.78;101444.03;5021864;28;20117;-52
2022/04/19 04:54:18;;;;;;;9.13;1.58;;;;;;;14.93;68.31;101445.22;5010983;28;20481;-53
2022/04/19 04:56:44;;;;;;;3.33;1.33;;;;;;;14.77;69.24;101440.41;5010064;28;20084;-53
2022/04/19 04:59:10;;;;;;;3.63;1.20;;;;;;;14.75;69.35;101445.16;5010766;28;20037;-52
2022/04/19 05:01:36;;;;;;;3.70;1.00;;;;;;;14.66;69.35;101438.41;5012109;28;20064;-53
2022/04/19 05:04:02;;;;;;;7.03;1.45;;;;;;;14.55;69.84;101442.63;5011231;28;20026;-53
2022/04/19 05:06:29;;;;;;;3.20;1.00;;;;;;;14.44;70.27;101430.66;5014596;28;20018;-52
2022/04/19 05:08:55;;;;;;;3.20;1.13;;;;;;;14.44;69.94;101432.53;5013885;28;20029;-53
2022/04/19 05:11:21;;;;;;;3.17;1.10;;;;;;;14.46;69.70;101428.56;5015637;28;20436;-52
2022/04/19 05:13:47;;;;;;;4.35;1.30;;;;;;;14.58;69.06;101439.50;5014424;28;20029;-51
2022/04/19 05:16:13;;;;;;;4.05;1.05;;;;;;;14.58;69.26;101430.59;5020814;28;20034;-52
2022/04/19 05:18:40;;;;;;;2.35;1.08;;;;;;;14.50;69.45;101429.81;5019469;28;20120;-52
2022/04/19 05:21:07;;;;;;;4.32;1.00;;;;;;;14.39;69.78;101441.25;5020017;28;20037;-52
2022/04/19 05:23:33;;;;;;;3.90;1.35;;;;;;;14.48;69.52;101429.19;5034114;28;20040;-53
2022/04/19 05:26:00;;;;;;;3.33;1.30;;;;;;;14.64;69.40;101418.94;5034179;28;20120;-53
2022/04/19 05:28:26;;;;;;;3.75;1.10;;;;;;;14.55;69.02;101434.56;5032745;28;20025;-53
2022/04/19 05:30:52;;;;;;;5.95;1.20;;;;;;;14.65;68.49;101423.28;5019429;28;20026;-52
2022/04/19 05:33:19;;;;;;;2.75;1.20;;;;;;;14.69;68.41;101421.81;5014148;28;20053;-52
2022/04/19 05:35:45;;;;;;;6.35;1.60;;;;;;;14.79;68.11;101419.44;5032265;28;20121;-52
2022/04/19 05:38:11;;;;;;;1.95;0.80;;;;;;;14.75;68.21;101423.63;5033576;28;20481;-53
2022/04/19 05:40:41;;;;;;;3.67;0.90;;;;;;;14.81;67.74;101413.81;5031768;28;20041;-53
2022/04/19 05:43:07;;;;;;;6.88;1.20;;;;;;;14.70;68.37;101418.06;5032379;28;20466;-53
2022/04/19 05:45:34;;;;;;;1.88;1.02;;;;;;;14.81;68.92;101420.03;5019803;28;20053;-52
2022/04/19 05:48:00;;;;;;;3.72;1.50;;;;;;;14.69;69.44;101414.53;5013661;28;20026;-53
2022/04/19 05:50:27;;;;;;;5.80;1.00;;;;;;;14.66;70.14;101414.16;5014724;28;20520;-53
2022/04/19 05:52:53;;;;;;;3.33;0.75;;;;;;;14.78;69.42;101415.09;5013222;28;20038;-54
2022/04/19 05:55:19;;;;;;;3.70;0.95;;;;;;;14.88;69.21;101407.34;5013978;28;20072;-54
2022/04/19 05:57:45;;;;;;;3.85;0.80;;;;;;;14.74;69.85;101416.59;5013512;28;20053;-53
2022/04/19 06:00:12;;;;;;;4.82;1.17;;;;;;;14.69;70.02;101416.41;5011969;28;20040;-53
2022/04/19 06:05:23;;;;;;;3.80;0.85;;;;;;;14.78;69.55;101413.22;5014693;28;20029;-52
2022/04/19 06:07:52;;;;;;;4.22;1.10;;;;;;;14.70;70.60;101409.97;5013320;28;20382;-52
2022/04/19 06:10:19;;;;;;;3.88;1.02;;;;;;;14.65;70.45;101416.00;5013619;28;20022;-53
2022/04/19 06:12:45;;;;;;;3.08;0.90;;;;;;;14.72;70.82;101418.69;5013263;28;20038;-52
2022/04/19 06:15:12;;;;;;;3.75;1.20;;;;;;;14.70;71.64;101418.06;5012260;28;20038;-53
2022/04/19 06:17:39;;;;;;;2.53;1.10;;;;;;;14.63;72.92;101417.28;5012470;28;20113;-52
2022/04/19 06:20:06;;;;;;;2.28;1.30;;;;;;;14.63;72.35;101419.97;5014428;28;20022;-52
2022/04/19 06:22:33;;;;;;;3.85;1.30;;;;;;;14.56;72.82;101414.66;5013010;28;20044;-51
2022/04/19 06:25:01;;;;;;;2.67;0.93;;;;;;;14.52;73.05;101408.88;5012103;28;20053;-52
2022/04/19 06:27:27;;;;;;;6.85;1.70;;;;;;;14.56;72.67;101406.56;5019883;23;20108;-52
2022/04/19 06:29:57;;;;;;;4.18;1.30;;;;;;;14.53;74.13;101415.06;4996475;28;20076;-52
2022/04/19 06:32:23;;;;;;;4.05;1.30;;;;;;;14.48;74.03;101414.91;4992048;28;20388;-51
2022/04/19 06:34:50;;;;;;;5.07;1.85;;;;;;;14.44;75.29;101414.50;4996428;28;20429;-51
2022/04/19 06:37:16;;;;;;;7.05;1.50;;;;;;;14.32;76.33;101421.59;4993109;28;20057;-52
2022/04/19 06:39:42;;;;;;;4.30;1.40;;;;;;;14.43;76.58;101428.16;4990838;28;20473;-51
2022/04/19 06:42:09;;;;;;;2.63;1.30;;;;;;;14.36;76.27;101422.00;4992639;28;20022;-51
2022/04/19 06:44:35;;;;;;;5.28;1.90;;;;;;;14.21;78.04;101419.59;5005521;28;20465;-51
2022/04/19 06:47:02;;;;;;;3.80;1.63;;;;;;;14.22;77.57;101418.56;5012236;28;20113;-48
2022/04/19 06:49:28;;;;;;;8.75;1.67;;;;;;;14.19;77.77;101416.28;5012742;28;20018;-51
2022/04/19 06:51:54;;;;;;;3.30;1.40;;;;;;;14.27;77.08;101432.22;5011375;28;20037;-50
2022/04/19 06:54:21;;;;;;;4.63;1.77;;;;;;;14.21;78.29;101427.66;5012486;28;20252;-49
2022/04/19 06:56:47;;;;;;;7.05;1.73;;;;;;;14.20;78.36;101429.53;5012830;28;20041;-51
2022/04/19 06:59:13;;;;;;;3.95;1.48;;;;;;;14.26;77.97;101422.47;5000189;28;20030;-51
2022/04/19 07:01:42;;;;;;;8.45;1.90;;;;;;;14.16;79.33;101422.13;4999210;28;20064;-50
2022/04/19 07:04:11;;;;;;;4.45;1.73;;;;;;;14.23;77.89;101417.53;5009285;28;20085;-51
2022/04/19 07:06:37;;;;;;;6.18;1.98;;;;;;;14.11;79.05;101413.88;4991577;28;20109;-50
2022/04/19 07:09:04;;;;;;;6.75;1.55;;;;;;;14.06;79.99;101419.88;4993344;28;20168;-51
2022/04/19 07:11:30;;;;;;;6.18;1.70;;;;;;;14.00;80.12;101413.50;4996279;28;20057;-50
2022/04/19 07:13:57;;;;;;;3.17;1.60;;;;;;;13.87;80.68;101410.84;5001978;28;20298;-50
2022/04/19 07:16:23;;;;;;;5.30;1.75;;;;;;;14.04;79.21;101413.06;5007758;28;20039;-51
2022/04/19 07:18:50;;;;;;;7.05;1.95;;;;;;;14.04;79.98;101408.50;4991936;28;20023;-51
2022/04/19 07:26:45;;;;;;;7.20;2.03;;;;;;;13.83;81.31;101412.34;4992875;28;20157;-51
2022/04/19 07:29:18;;;;;;;5.35;2.08;;;;;;;13.89;81.81;101419.56;4991236;28;20438;-51
2022/04/19 07:31:46;;;;;;;8.63;1.80;;;;;;;13.79;82.13;101412.97;4993993;28;20040;-48
2022/04/19 07:34:13;;;;;;;7.05;2.53;;;;;;;13.81;82.19;101419.78;4992052;28;20073;-51
2022/04/19 07:36:42;;;;;;;9.25;2.05;;;;;;;13.87;82.42;101418.94;4992109;28;20474;-50
2022/04/19 07:39:10;;;;;;;5.32;1.73;;;;;;;13.97;81.56;101422.00;4992178;28;20030;-48
2022/04/19 07:41:37;;;;;;;5.47;1.85;;;;;;;13.97;81.52;101426.56;5011879;28;20038;-51
2022/04/19 07:44:04;;;;;;;6.50;2.33;;;;;;;13.94;81.51;101425.13;5011862;28;20083;-50
2022/04/19 07:46:32;;;;;;;7.28;1.90;;;;;;;13.90;82.19;101434.66;4995506;28;20038;-50
2022/04/19 07:48:58;;;;;;;5.35;2.05;;;;;;;13.93;82.23;101428.00;4991416;28;20042;-50
2022/04/19 07:51:25;;;;;;;5.72;1.98;;;;;;;13.90;82.00;101423.06;5008264;28;20036;-51
2022/04/19 07:53:52;;;;;;;5.75;1.80;;;;;;;14.00;81.54;101426.97;5011950;28;20030;-50
2022/04/19 07:56:19;;;;;;;9.52;2.38;;;;;;;13.96;81.90;101428.41;4996594;28;20427;-49
2022/04/19 07:58:47;;;;;;;5.38;1.80;;;;;;;13.95;81.81;101423.25;4992143;28;20026;-51
2022/04/19 08:01:17;;;;;;;5.50;1.80;;;;;;;13.73;82.69;101428.09;5005229;28;20041;-52
2022/04/19 08:03:44;;;;;;;4.70;2.20;;;;;;;13.86;82.95;101414.59;5010358;28;20125;-50
2022/04/19 08:06:10;;;;;;;3.95;1.80;;;;;;;13.90;82.70;101420.38;5011803;28;20032;-48
2022/04/19 08:08:37;;;;;;;6.38;1.98;;;;;;;13.91;82.40;101419.34;5010562;28;20077;-51
2022/04/19 08:11:06;;;;;;;5.63;1.73;;;;;;;13.93;81.87;101425.31;5011587;28;20033;-51
2022/04/19 08:13:33;;;;;;;5.82;1.95;;;;;;;13.90;82.47;101407.75;4996414;28;20033;-52
2022/04/19 08:15:59;;;;;;;4.05;1.73;;;;;;;13.89;82.39;101418.72;4991978;28;20042;-50
2022/04/19 08:18:25;;;;;;;8.90;2.25;;;;;;;13.95;82.53;101418.69;4990059;28;20031;-50
2022/04/19 08:20:51;;;;;;;6.25;1.80;;;;;;;13.94;82.80;101419.75;4991657;28;20038;-51
2022/04/19 08:23:18;;;;;;;6.00;1.45;;;;;;;13.91;82.74;101417.47;4995118;28;20472;-51
2022/04/19 08:25:44;;;;;;;4.15;1.63;;;;;;;13.92;82.61;101410.22;4992089;28;20038;-48
2022/04/19 08:28:10;;;;;;;4.38;1.60;;;;;;;13.87;82.67;101415.41;4990158;28;20065;-51
2022/04/19 08:30:37;;;;;;;4.38;1.80;;;;;;;13.90;82.82;101412.31;4993016;28;20036;-51
2022/04/19 08:33:03;;;;;;;2.83;1.60;;;;;;;13.94;81.88;101406.28;4989382;28;20476;-49
2022/04/19 08:35:29;;;;;;;5.07;1.80;;;;;;;13.93;82.81;101407.31;4994112;28;20463;-51
2022/04/19 08:37:56;;;;;;;5.97;1.52;;;;;;;14.00;82.00;101407.28;4993288;28;20479;-49
2022/04/19 08:40:25;;;;;;;3.72;1.60;;;;;;;14.11;81.70;101405.78;4999997;28;20034;-51
2022/04/19 08:42:51;;;;;;;3.10;1.30;;;;;;;14.07;81.71;101401.88;4995713;28;20030;-49
2022/04/19 08:45:20;;;;;;;3.97;1.40;;;;;;;14.03;82.00;101400.63;5009258;28;20030;-49
2022/04/19 08:47:47;;;;;;;4.45;1.33;;;;;;;14.09;81.27;101408.69;5014381;28;20354;-50
2022/04/19 08:50:18;;;;;;;4.63;1.38;;;;;;;14.20;80.91;101413.38;5015225;28;20053;-51
2022/04/19 08:52:46;;;;;;;3.50;1.30;;;;;;;14.16;81.75;101405.97;5012766;28;20030;-51
2022/04/19 08:57:57;;;;;;;4.57;1.30;;;;;;;14.20;81.62;101394.53;5008317;28;20033;-52
2022/04/19 09:00:24;;;;;;;3.38;1.30;;;;;;;14.21;81.20;101403.44;5015201;28;20029;-52
2022/04/19 09:02:52;;;;;;;5.07;1.17;;;;;;;14.25;80.63;101401.97;5014920;28;20037;-49
2022/04/19 09:05:26;;;;;;;2.63;1.48;;;;;;;14.13;81.86;101409.09;4998230;28;20034;-51
2022/04/19 09:07:54;;;;;;;3.75;1.60;;;;;;;14.15;81.90;101415.06;4994998;28;20027;-51
2022/04/19 09:10:32;;;;;;;3.38;1.45;;;;;;;14.18;81.21;101411.97;4995120;28;20022;-52
2022/04/19 09:13:02;;;;;;;3.45;1.40;;;;;;;14.17;81.80;101403.06;4995479;28;20026;-52
2022/04/19 09:15:39;;;;;;;2.60;1.60;;;;;;;14.27;81.24;101418.75;5002167;28;20058;-51
2022/04/19 09:18:30;;;;;;;3.20;1.35;;;;;;;14.30;81.10;101420.16;5014500;28;20105;-52
2022/04/19 09:20:58;;;;;;;2.42;0.90;;;;;;;14.23;81.22;101406.75;4995809;28;20030;-51
2022/04/19 09:23:25;;;;;;;3.78;0.90;;;;;;;14.30;80.82;101415.59;4995017;28;20033;-51
2022/04/19 09:26:13;;;;;;;1.75;1.00;;;;;;;14.26;81.08;101409.81;4995046;28;20034;-52
2022/04/19 09:28:39;;;;;;;2.78;0.70;;;;;;;14.28;79.52;101409.63;4994848;28;20065;-52
2022/04/19 09:31:13;;;;;;;4.25;0.77;;;;;;;14.22;79.93;101410.50;4994702;28;20044;-50
2022/04/19 09:33:40;;;;;;;2.42;0.60;;;;;;;14.16;80.09;101411.34;5001562;28;20030;-51
2022/04/19 09:36:07;;;;;;;1.45;0.60;;;;;;;14.28;78.89;101415.00;5014125;28;20103;-49
2022/04/19 09:38:36;;;;;;;2.28;0.50;;;;;;;14.18;79.47;101412.78;5004025;28;20026;-49
2022/04/19 09:41:07;;;;;;;1.35;0.50;;;;;;;14.07;79.69;101408.06;5002000;28;20014;-50
2022/04/19 09:43:34;;;;;;;1.52;0.60;;;;;;;14.07;79.31;101407.25;5011721;28;20034;-50
2022/04/19 09:46:14;;;;;;;2.50;0.60;;;;;;;14.04;79.57;101418.44;5014033;28;20370;-48
2022/04/19 09:48:40;;;;;;;2.80;0.75;;;;;;;14.03;79.17;101414.09;5002526;28;20102;-50
2022/04/19 09:51:06;;;;;;;3.10;0.82;;;;;;;14.09;78.81;101421.31;4991951;28;20030;-51
2022/04/19 09:53:42;;;;;;;2.42;0.80;;;;;;;13.89;79.22;101435.69;4997188;28;20029;-49
2022/04/19 09:56:10;;;;;;;1.80;0.88;;;;;;;13.86;79.25;101430.72;4994391;28;20454;-49
2022/04/19 09:58:38;;;;;;;2.00;0.60;;;;;;;13.90;78.33;101423.06;4995837;28;20027;-49
2022/04/19 10:01:05;;;;;;;1.50;0.60;;;;;;;13.63;79.32;101427.72;5001506;28;20058;-48
2022/04/19 10:09:05;;;;;;;0.80;0.52;;;;;;;13.69;78.35;101425.00;5024566;28;20041;-51
2022/04/19 10:11:32;;;;;;;0.95;0.40;;;;;;;13.73;77.77;101428.09;5011414;28;20034;-51
2022/04/19 10:13:59;;;;;;;0.98;0.30;;;;;;;13.79;78.05;101432.63;4993611;28;20469;-51
2022/04/19 10:16:29;;;;;;;1.05;0.30;;;;;;;13.81;77.65;101424.34;4993580;28;20030;-49
2022/04/19 10:18:55;;;;;;;1.88;0.45;;;;;;;13.84;77.20;101424.75;4994040;28;20029;-50
2022/04/19 10:21:26;;;;;;;0.47;0.43;;;;;;;13.85;76.79;101420.19;5004190;28;20264;-51
2022/04/19 10:24:12;;;;;;;1.92;0.50;;;;;;;13.76;77.32;101413.38;5013390;28;20547;-51
2022/04/19 10:26:49;;;;;;;1.17;0.40;;;;;;;13.87;76.85;101410.84;5013127;28;20057;-49
2022/04/19 10:29:22;;;;;;;1.25;0.25;;;;;;;13.87;76.80;101413.53;5005459;28;20467;-51
2022/04/19 10:32:08;;;;;;;0.57;0.45;;;;;;;13.89;76.63;101418.72;4993794;28;20045;-51
2022/04/19 10:34:37;;;;;;;0.68;0.55;;;;;;;13.97;75.96;101415.78;4993935;28;20034;-49
2022/04/19 10:37:15;;;;;;;0.45;0.28;;;;;;;14.08;75.13;101425.88;4993616;28;20019;-48
2022/04/19 10:39:46;;;;;;;0.30;0.30;;;;;;;14.08;75.60;101431.25;4993378;28;20038;-49
2022/04/19 10:42:32;;;;;;;0.73;0.30;;;;;;;13.93;75.85;101428.00;4993644;28;20018;-49
2022/04/19 10:45:19;;;;;;;0.82;0.40;;;;;;;13.95;75.13;101426.78;5001826;28;20120;-49
2022/04/19 10:47:54;;;;;;;0.65;0.30;;;;;;;13.96;75.33;101432.97;5012322;28;20120;-50
2022/04/19 10:50:34;;;;;;;0.20;0.20;;;;;;;13.99;75.24;101422.63;5011799;28;20033;-52
2022/04/19 10:53:05;;;;;;;0.75;0.20;;;;;;;13.83;75.81;101427.66;5006078;28;20034;-51
2022/04/19 10:55:35;;;;;;;0.43;0.30;;;;;;;13.91;75.64;101440.88;5011946;28;20487;-50
2022/04/19 11:01:05;;;;;;;1.20;0.47;;;;;;;14.02;75.37;101432.13;4972864;28;20099;-51
2022/04/19 11:03:37;;;;;;;1.02;0.20;;;;;;;14.11;74.81;101430.84;4996007;28;20041;-51
2022/04/19 11:06:24;;;;;;;0.77;0.40;;;;;;;14.04;75.01;101426.50;4993095;28;20034;-49
2022/04/19 11:09:09;;;;;;;0.93;0.40;;;;;;;13.99;75.22;101427.16;4993691;28;20030;-52
2022/04/19 11:11:51;;;;;;;0.40;0.40;;;;;;;14.06;74.64;101427.16;5001649;28;20033;-51
2022/04/19 11:14:20;;;;;;;2.80;0.45;;;;;;;13.96;74.65;101419.53;5012557;28;20268;-52
2022/04/19 11:16:50;;;;;;;1.38;0.70;;;;;;;14.08;74.23;101412.41;5012483;28;20030;-51
2022/04/19 11:19:25;;;;;;;1.48;0.47;;;;;;;14.17;73.37;101411.13;5007468;28;20037;-49
2022/04/19 11:21:54;;;;;;;;;;;;;;;14.21;72.68;101415.06;4993531;28;20061;-50
2022/04/19 11:24:57;;;;;;;0.98;0.25;;;;;;;13.98;72.98;101415.56;5003791;28;19917;-52
2022/04/19 11:27:44;;;;;;;1.35;0.40;;;;;;;13.84;72.93;101413.16;5011978;28;20057;-51
2022/04/19 11:30:13;;;;;;;1.27;0.35;;;;;;;13.79;73.16;101424.56;4981575;28;20045;-51
2022/04/19 11:32:40;;;;;;;1.48;0.63;;;;;;;13.67;73.38;101428.97;4997159;28;20045;-49
2022/04/19 11:35:06;;;;;;;0.55;0.30;;;;;;;13.70;73.20;101439.28;5009395;28;20029;-51
2022/04/19 11:37:33;;;;;;;0.60;0.30;;;;;;;13.61;73.14;101435.19;5001892;28;20111;-51
2022/04/19 11:48:30;;;;;;;0.70;0.50;;;;;;;13.45;74.07;101447.22;5012229;28;20076;-53
2022/04/19 11:51:10;;;;;;;1.48;0.57;;;;;;;13.46;74.34;101452.38;4999245;28;20039;-53
2022/04/19 11:53:37;;;;;;;2.63;0.60;;;;;;;13.47;74.55;101439.75;5002070;28;20038;-53
2022/04/19 11:56:04;;;;;;;1.02;0.70;;;;;;;13.57;74.38;101442.00;5004556;28;20084;-53
2022/04/19 11:58:31;;;;;;;1.27;0.70;;;;;;;13.58;74.82;101451.72;5008080;28;20068;-52
2022/04/19 12:01:01;;;;;;;2.25;0.55;;;;;;;13.61;74.87;101459.41;5011427;28;20018;-53
2022/04/19 12:03:33;;;;;;;2.22;0.90;;;;;;;13.51;75.27;101456.31;5011819;28;20033;-53
2022/04/19 12:06:21;;;;;;;3.08;1.15;;;;;;;13.77;74.60;101458.94;5011365;28;20504;-53
2022/04/19 12:08:51;;;;;;;1.77;0.80;;;;;;;13.56;74.99;101448.44;4999622;28;20084;-53
2022/04/19 12:11:26;;;;;;;1.90;0.82;;;;;;;13.49;75.66;101445.75;4992753;28;20097;-52